sensor_id;sensor_type;location;lat;lon;timestamp;P1;durP1;ratioP1;P2;durP2;ratioP2
11797;SDS011;5956;51.428;6.682;2023-05-10T00:01:58;13.90;;;12.60;;
11797;SDS011;5956;51.428;6.682;2023-05-10T00:04:25;13.93;;;12.73;;
11797;SDS011;5956;51.428;6.682;2023-05-10T00:06:52;14.13;;;12.83;;
11797;SDS011;5956;51.428;6.682;2023-05-10T00:09:18;13.63;;;12.33;;
11797;SDS011;5956;51.428;6.682;2023-05-10T00:11:45;13.00;;;11.90;;
11797;SDS011;5956;51.428;6.682;2023-05-10T00:14:11;13.27;;;11.97;;
11797;SDS011;5956;51.428;6.682;2023-05-10T00:16:39;11.43;;;10.53;;
11797;SDS011;5956;51.428;6.682;2023-05-10T00:19:06;10.77;;;9.77;;
11797;SDS011;5956;51.428;6.682;2023-05-10T00:21:32;10.40;;;9.57;;
11797;SDS011;5956;51.428;6.682;2023-05-10T00:23:59;10.17;;;9.27;;
11797;SDS011;5956;51.428;6.682;2023-05-10T00:26:26;11.40;;;9.97;;
11797;SDS011;5956;51.428;6.682;2023-05-10T00:28:52;10.47;;;9.40;;
11797;SDS011;5956;51.428;6.682;2023-05-10T00:31:19;10.37;;;9.47;;
11797;SDS011;5956;51.428;6.682;2023-05-10T00:33:46;10.03;;;9.13;;
11797;SDS011;5956;51.428;6.682;2023-05-10T00:36:13;10.20;;;9.30;;
11797;SDS011;5956;51.428;6.682;2023-05-10T00:38:39;10.77;;;9.80;;
11797;SDS011;5956;51.428;6.682;2023-05-10T00:41:06;11.60;;;10.07;;
11797;SDS011;5956;51.428;6.682;2023-05-10T00:43:33;11.77;;;10.63;;
11797;SDS011;5956;51.428;6.682;2023-05-10T00:45:59;12.17;;;10.97;;
11797;SDS011;5956;51.428;6.682;2023-05-10T00:48:25;13.40;;;12.20;;
11797;SDS011;5956;51.428;6.682;2023-05-10T00:50:53;12.57;;;11.47;;
11797;SDS011;5956;51.428;6.682;2023-05-10T00:53:20;13.30;;;12.03;;
11797;SDS011;5956;51.428;6.682;2023-05-10T00:55:47;13.43;;;12.30;;
11797;SDS011;5956;51.428;6.682;2023-05-10T00:58:14;13.33;;;12.00;;
11797;SDS011;5956;51.428;6.682;2023-05-10T01:00:41;13.83;;;12.53;;
11797;SDS011;5956;51.428;6.682;2023-05-10T01:03:09;14.13;;;12.43;;
11797;SDS011;5956;51.428;6.682;2023-05-10T01:05:35;14.50;;;13.30;;
11797;SDS011;5956;51.428;6.682;2023-05-10T01:08:03;14.90;;;13.50;;
11797;SDS011;5956;51.428;6.682;2023-05-10T01:10:30;14.33;;;12.93;;
11797;SDS011;5956;51.428;6.682;2023-05-10T01:12:57;13.83;;;12.73;;
11797;SDS011;5956;51.428;6.682;2023-05-10T01:15:25;15.70;;;14.27;;
11797;SDS011;5956;51.428;6.682;2023-05-10T01:17:51;15.00;;;13.63;;
11797;SDS011;5956;51.428;6.682;2023-05-10T01:20:18;14.60;;;13.17;;
11797;SDS011;5956;51.428;6.682;2023-05-10T01:25:38;15.70;;;14.13;;
11797;SDS011;5956;51.428;6.682;2023-05-10T01:28:23;14.87;;;13.57;;
11797;SDS011;5956;51.428;6.682;2023-05-10T01:31:07;15.07;;;13.67;;
11797;SDS011;5956;51.428;6.682;2023-05-10T01:33:39;14.73;;;13.47;;
11797;SDS011;5956;51.428;6.682;2023-05-10T01:36:08;15.73;;;14.13;;
11797;SDS011;5956;51.428;6.682;2023-05-10T01:38:38;13.77;;;12.57;;
11797;SDS011;5956;51.428;6.682;2023-05-10T01:41:08;13.63;;;12.40;;
11797;SDS011;5956;51.428;6.682;2023-05-10T01:43:41;14.97;;;13.63;;
11797;SDS011;5956;51.428;6.682;2023-05-10T01:46:09;14.00;;;12.80;;
11797;SDS011;5956;51.428;6.682;2023-05-10T01:48:36;15.20;;;13.60;;
11797;SDS011;5956;51.428;6.682;2023-05-10T01:51:05;15.97;;;14.37;;
11797;SDS011;5956;51.428;6.682;2023-05-10T01:53:32;15.37;;;13.97;;
11797;SDS011;5956;51.428;6.682;2023-05-10T01:55:59;16.73;;;15.23;;
11797;SDS011;5956;51.428;6.682;2023-05-10T01:58:27;16.40;;;14.80;;
11797;SDS011;5956;51.428;6.682;2023-05-10T02:00:54;15.23;;;13.80;;
11797;SDS011;5956;51.428;6.682;2023-05-10T02:03:22;15.97;;;14.47;;
11797;SDS011;5956;51.428;6.682;2023-05-10T02:05:49;17.67;;;15.87;;
11797;SDS011;5956;51.428;6.682;2023-05-10T02:08:18;17.03;;;15.50;;
11797;SDS011;5956;51.428;6.682;2023-05-10T02:10:45;17.03;;;15.37;;
11797;SDS011;5956;51.428;6.682;2023-05-10T02:13:12;16.53;;;15.03;;
11797;SDS011;5956;51.428;6.682;2023-05-10T02:15:39;17.67;;;15.97;;
11797;SDS011;5956;51.428;6.682;2023-05-10T02:18:06;17.27;;;15.50;;
11797;SDS011;5956;51.428;6.682;2023-05-10T02:20:35;16.97;;;15.47;;
11797;SDS011;5956;51.428;6.682;2023-05-10T02:23:02;16.93;;;15.17;;
11797;SDS011;5956;51.428;6.682;2023-05-10T02:25:30;16.57;;;15.13;;
11797;SDS011;5956;51.428;6.682;2023-05-10T02:27:57;15.93;;;14.43;;
11797;SDS011;5956;51.428;6.682;2023-05-10T02:30:26;16.10;;;14.67;;
11797;SDS011;5956;51.428;6.682;2023-05-10T02:32:52;15.73;;;14.30;;
11797;SDS011;5956;51.428;6.682;2023-05-10T02:35:19;15.80;;;14.30;;
11797;SDS011;5956;51.428;6.682;2023-05-10T02:37:46;16.30;;;14.60;;
11797;SDS011;5956;51.428;6.682;2023-05-10T02:40:13;16.30;;;14.73;;
11797;SDS011;5956;51.428;6.682;2023-05-10T02:42:42;15.90;;;14.30;;
11797;SDS011;5956;51.428;6.682;2023-05-10T02:45:12;16.97;;;15.37;;
11797;SDS011;5956;51.428;6.682;2023-05-10T02:47:40;16.60;;;15.00;;
11797;SDS011;5956;51.428;6.682;2023-05-10T02:50:06;15.53;;;14.07;;
11797;SDS011;5956;51.428;6.682;2023-05-10T02:52:36;15.70;;;14.17;;
11797;SDS011;5956;51.428;6.682;2023-05-10T02:55:05;15.47;;;13.90;;
11797;SDS011;5956;51.428;6.682;2023-05-10T02:57:32;15.00;;;13.53;;
11797;SDS011;5956;51.428;6.682;2023-05-10T03:00:01;16.10;;;14.40;;
11797;SDS011;5956;51.428;6.682;2023-05-10T03:02:28;15.47;;;13.97;;
11797;SDS011;5956;51.428;6.682;2023-05-10T03:04:55;15.27;;;13.93;;
11797;SDS011;5956;51.428;6.682;2023-05-10T03:07:22;15.53;;;14.03;;
11797;SDS011;5956;51.428;6.682;2023-05-10T03:09:48;14.60;;;13.37;;
11797;SDS011;5956;51.428;6.682;2023-05-10T03:12:16;15.43;;;13.93;;
11797;SDS011;5956;51.428;6.682;2023-05-10T03:14:46;14.90;;;13.57;;
11797;SDS011;5956;51.428;6.682;2023-05-10T03:17:19;13.57;;;12.37;;
11797;SDS011;5956;51.428;6.682;2023-05-10T03:19:50;14.90;;;13.37;;
11797;SDS011;5956;51.428;6.682;2023-05-10T03:22:20;16.00;;;13.70;;
11797;SDS011;5956;51.428;6.682;2023-05-10T03:24:47;14.63;;;13.20;;
11797;SDS011;5956;51.428;6.682;2023-05-10T03:27:15;14.90;;;13.33;;
11797;SDS011;5956;51.428;6.682;2023-05-10T03:29:41;15.10;;;13.67;;
11797;SDS011;5956;51.428;6.682;2023-05-10T03:32:08;14.60;;;13.20;;
11797;SDS011;5956;51.428;6.682;2023-05-10T03:34:36;14.70;;;13.20;;
11797;SDS011;5956;51.428;6.682;2023-05-10T03:37:07;14.63;;;13.23;;
11797;SDS011;5956;51.428;6.682;2023-05-10T03:39:33;14.43;;;12.97;;
11797;SDS011;5956;51.428;6.682;2023-05-10T03:42:00;15.17;;;13.67;;
11797;SDS011;5956;51.428;6.682;2023-05-10T03:44:26;15.23;;;13.63;;
11797;SDS011;5956;51.428;6.682;2023-05-10T03:46:53;15.10;;;13.60;;
11797;SDS011;5956;51.428;6.682;2023-05-10T03:49:19;14.70;;;13.20;;
11797;SDS011;5956;51.428;6.682;2023-05-10T03:51:47;14.77;;;13.37;;
11797;SDS011;5956;51.428;6.682;2023-05-10T03:54:13;15.90;;;14.30;;
11797;SDS011;5956;51.428;6.682;2023-05-10T03:56:40;15.67;;;14.17;;
11797;SDS011;5956;51.428;6.682;2023-05-10T03:59:06;16.73;;;14.50;;
11797;SDS011;5956;51.428;6.682;2023-05-10T04:01:33;17.23;;;15.43;;
11797;SDS011;5956;51.428;6.682;2023-05-10T04:04:00;16.77;;;15.07;;
11797;SDS011;5956;51.428;6.682;2023-05-10T04:06:26;16.87;;;15.07;;
11797;SDS011;5956;51.428;6.682;2023-05-10T04:08:54;17.27;;;15.47;;
11797;SDS011;5956;51.428;6.682;2023-05-10T04:11:21;17.23;;;15.53;;
11797;SDS011;5956;51.428;6.682;2023-05-10T04:13:48;17.13;;;15.33;;
11797;SDS011;5956;51.428;6.682;2023-05-10T04:16:14;19.60;;;17.70;;
11797;SDS011;5956;51.428;6.682;2023-05-10T04:18:41;18.27;;;16.43;;
11797;SDS011;5956;51.428;6.682;2023-05-10T04:21:11;17.80;;;16.00;;
11797;SDS011;5956;51.428;6.682;2023-05-10T04:23:37;19.97;;;17.87;;
11797;SDS011;5956;51.428;6.682;2023-05-10T04:26:05;19.47;;;17.47;;
11797;SDS011;5956;51.428;6.682;2023-05-10T04:28:31;19.90;;;17.90;;
11797;SDS011;5956;51.428;6.682;2023-05-10T04:31:01;24.20;;;21.60;;
11797;SDS011;5956;51.428;6.682;2023-05-10T04:33:28;24.47;;;21.67;;
11797;SDS011;5956;51.428;6.682;2023-05-10T04:35:54;24.37;;;20.43;;
11797;SDS011;5956;51.428;6.682;2023-05-10T04:38:21;21.17;;;18.33;;
11797;SDS011;5956;51.428;6.682;2023-05-10T04:40:47;22.13;;;19.73;;
11797;SDS011;5956;51.428;6.682;2023-05-10T04:43:15;23.63;;;20.53;;
11797;SDS011;5956;51.428;6.682;2023-05-10T04:45:42;25.43;;;21.90;;
11797;SDS011;5956;51.428;6.682;2023-05-10T04:48:08;22.33;;;19.67;;
11797;SDS011;5956;51.428;6.682;2023-05-10T04:50:35;26.03;;;21.60;;
11797;SDS011;5956;51.428;6.682;2023-05-10T04:53:01;29.77;;;23.00;;
11797;SDS011;5956;51.428;6.682;2023-05-10T04:55:28;26.83;;;23.60;;
11797;SDS011;5956;51.428;6.682;2023-05-10T04:57:54;24.70;;;22.00;;
11797;SDS011;5956;51.428;6.682;2023-05-10T05:00:23;27.73;;;23.07;;
11797;SDS011;5956;51.428;6.682;2023-05-10T05:02:50;26.43;;;22.60;;
11797;SDS011;5956;51.428;6.682;2023-05-10T05:05:16;28.80;;;24.90;;
11797;SDS011;5956;51.428;6.682;2023-05-10T05:07:43;27.60;;;24.60;;
11797;SDS011;5956;51.428;6.682;2023-05-10T05:10:09;26.83;;;23.70;;
11797;SDS011;5956;51.428;6.682;2023-05-10T05:12:36;35.73;;;29.67;;
11797;SDS011;5956;51.428;6.682;2023-05-10T05:15:03;30.57;;;24.40;;
11797;SDS011;5956;51.428;6.682;2023-05-10T05:17:31;26.93;;;23.10;;
11797;SDS011;5956;51.428;6.682;2023-05-10T05:19:57;8.87;;;8.17;;
11797;SDS011;5956;51.428;6.682;2023-05-10T05:22:24;21.93;;;19.73;;
11797;SDS011;5956;51.428;6.682;2023-05-10T05:24:52;26.80;;;23.60;;
11797;SDS011;5956;51.428;6.682;2023-05-10T05:27:19;24.67;;;21.97;;
11797;SDS011;5956;51.428;6.682;2023-05-10T05:29:47;27.43;;;23.33;;
11797;SDS011;5956;51.428;6.682;2023-05-10T05:32:14;25.87;;;23.07;;
11797;SDS011;5956;51.428;6.682;2023-05-10T05:34:41;25.97;;;23.17;;
11797;SDS011;5956;51.428;6.682;2023-05-10T05:37:12;27.57;;;24.47;;
11797;SDS011;5956;51.428;6.682;2023-05-10T05:39:38;26.93;;;24.13;;
11797;SDS011;5956;51.428;6.682;2023-05-10T05:42:05;26.80;;;23.93;;
11797;SDS011;5956;51.428;6.682;2023-05-10T05:44:31;28.07;;;25.13;;
11797;SDS011;5956;51.428;6.682;2023-05-10T05:46:58;30.20;;;25.53;;
11797;SDS011;5956;51.428;6.682;2023-05-10T05:49:24;31.87;;;28.40;;
11797;SDS011;5956;51.428;6.682;2023-05-10T05:51:52;32.07;;;26.17;;
11797;SDS011;5956;51.428;6.682;2023-05-10T05:54:18;32.40;;;27.90;;
11797;SDS011;5956;51.428;6.682;2023-05-10T05:56:45;36.43;;;31.03;;
11797;SDS011;5956;51.428;6.682;2023-05-10T05:59:12;34.97;;;29.17;;
11797;SDS011;5956;51.428;6.682;2023-05-10T06:01:38;33.13;;;28.40;;
11797;SDS011;5956;51.428;6.682;2023-05-10T06:04:05;34.40;;;28.07;;
11797;SDS011;5956;51.428;6.682;2023-05-10T06:06:31;32.20;;;28.17;;
11797;SDS011;5956;51.428;6.682;2023-05-10T06:09:00;34.57;;;28.37;;
11797;SDS011;5956;51.428;6.682;2023-05-10T06:11:26;34.90;;;29.73;;
11797;SDS011;5956;51.428;6.682;2023-05-10T06:13:53;41.13;;;30.30;;
11797;SDS011;5956;51.428;6.682;2023-05-10T06:16:19;38.83;;;30.73;;
11797;SDS011;5956;51.428;6.682;2023-05-10T06:18:46;39.87;;;30.97;;
11797;SDS011;5956;51.428;6.682;2023-05-10T06:21:12;40.40;;;30.57;;
11797;SDS011;5956;51.428;6.682;2023-05-10T06:23:39;40.67;;;31.73;;
11797;SDS011;5956;51.428;6.682;2023-05-10T06:26:07;40.70;;;30.77;;
11797;SDS011;5956;51.428;6.682;2023-05-10T06:28:34;42.47;;;32.40;;
11797;SDS011;5956;51.428;6.682;2023-05-10T06:31:03;40.73;;;31.77;;
11797;SDS011;5956;51.428;6.682;2023-05-10T06:33:29;43.37;;;31.90;;
11797;SDS011;5956;51.428;6.682;2023-05-10T06:35:56;42.10;;;32.63;;
11797;SDS011;5956;51.428;6.682;2023-05-10T06:38:22;40.40;;;30.73;;
11797;SDS011;5956;51.428;6.682;2023-05-10T06:40:49;43.10;;;31.30;;
11797;SDS011;5956;51.428;6.682;2023-05-10T06:43:17;41.53;;;30.37;;
11797;SDS011;5956;51.428;6.682;2023-05-10T06:45:43;44.50;;;32.00;;
11797;SDS011;5956;51.428;6.682;2023-05-10T06:48:10;40.33;;;31.17;;
11797;SDS011;5956;51.428;6.682;2023-05-10T06:50:36;40.00;;;29.87;;
11797;SDS011;5956;51.428;6.682;2023-05-10T06:53:03;39.57;;;29.87;;
11797;SDS011;5956;51.428;6.682;2023-05-10T06:55:29;38.53;;;30.30;;
11797;SDS011;5956;51.428;6.682;2023-05-10T06:57:56;40.87;;;30.80;;
11797;SDS011;5956;51.428;6.682;2023-05-10T07:00:24;39.80;;;30.63;;
11797;SDS011;5956;51.428;6.682;2023-05-10T07:02:51;38.83;;;30.13;;
11797;SDS011;5956;51.428;6.682;2023-05-10T07:05:17;41.10;;;31.30;;
11797;SDS011;5956;51.428;6.682;2023-05-10T07:07:44;38.70;;;30.13;;
11797;SDS011;5956;51.428;6.682;2023-05-10T07:10:11;40.80;;;29.03;;
11797;SDS011;5956;51.428;6.682;2023-05-10T07:12:38;36.43;;;29.13;;
11797;SDS011;5956;51.428;6.682;2023-05-10T07:15:05;37.03;;;29.03;;
11797;SDS011;5956;51.428;6.682;2023-05-10T07:17:33;37.40;;;27.93;;
11797;SDS011;5956;51.428;6.682;2023-05-10T07:19:59;20.17;;;17.47;;
11797;SDS011;5956;51.428;6.682;2023-05-10T07:22:26;37.33;;;28.23;;
11797;SDS011;5956;51.428;6.682;2023-05-10T07:24:53;37.00;;;27.70;;
11797;SDS011;5956;51.428;6.682;2023-05-10T07:27:20;36.13;;;28.77;;
11797;SDS011;5956;51.428;6.682;2023-05-10T07:29:46;39.20;;;28.37;;
11797;SDS011;5956;51.428;6.682;2023-05-10T07:32:13;35.23;;;27.90;;
11797;SDS011;5956;51.428;6.682;2023-05-10T07:34:41;39.43;;;29.60;;
11797;SDS011;5956;51.428;6.682;2023-05-10T07:37:08;37.47;;;27.93;;
11797;SDS011;5956;51.428;6.682;2023-05-10T07:39:34;35.17;;;27.77;;
11797;SDS011;5956;51.428;6.682;2023-05-10T07:42:01;35.87;;;27.40;;
11797;SDS011;5956;51.428;6.682;2023-05-10T07:44:27;36.23;;;28.20;;
11797;SDS011;5956;51.428;6.682;2023-05-10T07:46:54;39.90;;;29.53;;
11797;SDS011;5956;51.428;6.682;2023-05-10T07:49:21;39.97;;;29.77;;
11797;SDS011;5956;51.428;6.682;2023-05-10T07:51:50;40.72;;;29.80;;
11797;SDS011;5956;51.428;6.682;2023-05-10T07:54:17;43.67;;;30.98;;
11797;SDS011;5956;51.428;6.682;2023-05-10T07:56:43;40.70;;;28.50;;
11797;SDS011;5956;51.428;6.682;2023-05-10T07:59:14;39.08;;;28.70;;
11797;SDS011;5956;51.428;6.682;2023-05-10T08:01:41;41.25;;;30.13;;
11797;SDS011;5956;51.428;6.682;2023-05-10T08:04:08;38.97;;;30.33;;
11797;SDS011;5956;51.428;6.682;2023-05-10T08:06:34;41.20;;;29.48;;
11797;SDS011;5956;51.428;6.682;2023-05-10T08:09:02;39.10;;;29.23;;
11797;SDS011;5956;51.428;6.682;2023-05-10T08:11:29;38.15;;;30.10;;
11797;SDS011;5956;51.428;6.682;2023-05-10T08:13:55;37.83;;;29.80;;
11797;SDS011;5956;51.428;6.682;2023-05-10T08:16:22;36.80;;;28.35;;
11797;SDS011;5956;51.428;6.682;2023-05-10T08:18:48;33.05;;;24.90;;
11797;SDS011;5956;51.428;6.682;2023-05-10T08:21:15;33.50;;;25.55;;
11797;SDS011;5956;51.428;6.682;2023-05-10T08:23:42;34.30;;;25.90;;
11797;SDS011;5956;51.428;6.682;2023-05-10T08:26:10;34.00;;;24.60;;
11797;SDS011;5956;51.428;6.682;2023-05-10T08:28:37;33.20;;;26.80;;
11797;SDS011;5956;51.428;6.682;2023-05-10T08:31:04;33.35;;;25.88;;
11797;SDS011;5956;51.428;6.682;2023-05-10T08:33:30;32.15;;;26.20;;
11797;SDS011;5956;51.428;6.682;2023-05-10T08:35:57;33.63;;;25.55;;
11797;SDS011;5956;51.428;6.682;2023-05-10T08:38:23;36.30;;;27.33;;
11797;SDS011;5956;51.428;6.682;2023-05-10T08:40:50;31.67;;;26.10;;
11797;SDS011;5956;51.428;6.682;2023-05-10T08:43:22;31.05;;;26.33;;
11797;SDS011;5956;51.428;6.682;2023-05-10T08:45:53;33.00;;;24.98;;
11797;SDS011;5956;51.428;6.682;2023-05-10T08:48:20;29.83;;;25.52;;
11797;SDS011;5956;51.428;6.682;2023-05-10T08:50:48;29.55;;;24.10;;
11797;SDS011;5956;51.428;6.682;2023-05-10T08:53:18;33.03;;;24.77;;
11797;SDS011;5956;51.428;6.682;2023-05-10T08:55:45;31.40;;;24.50;;
11797;SDS011;5956;51.428;6.682;2023-05-10T08:58:12;29.25;;;23.42;;
11797;SDS011;5956;51.428;6.682;2023-05-10T09:00:40;28.13;;;22.33;;
11797;SDS011;5956;51.428;6.682;2023-05-10T09:03:06;23.80;;;21.08;;
11797;SDS011;5956;51.428;6.682;2023-05-10T09:05:33;24.77;;;20.17;;
11797;SDS011;5956;51.428;6.682;2023-05-10T09:07:59;22.13;;;19.23;;
11797;SDS011;5956;51.428;6.682;2023-05-10T09:10:26;21.08;;;17.58;;
11797;SDS011;5956;51.428;6.682;2023-05-10T09:12:53;22.48;;;18.38;;
11797;SDS011;5956;51.428;6.682;2023-05-10T09:15:22;25.60;;;18.98;;
11797;SDS011;5956;51.428;6.682;2023-05-10T09:17:50;21.90;;;17.38;;
11797;SDS011;5956;51.428;6.682;2023-05-10T09:20:16;19.13;;;17.23;;
11797;SDS011;5956;51.428;6.682;2023-05-10T09:22:43;21.27;;;18.02;;
11797;SDS011;5956;51.428;6.682;2023-05-10T09:25:10;20.02;;;17.80;;
11797;SDS011;5956;51.428;6.682;2023-05-10T09:27:38;20.67;;;17.70;;
11797;SDS011;5956;51.428;6.682;2023-05-10T09:30:05;22.17;;;18.20;;
11797;SDS011;5956;51.428;6.682;2023-05-10T09:32:38;19.07;;;17.07;;
11797;SDS011;5956;51.428;6.682;2023-05-10T09:35:10;19.55;;;17.50;;
11797;SDS011;5956;51.428;6.682;2023-05-10T09:37:38;20.20;;;17.85;;
11797;SDS011;5956;51.428;6.682;2023-05-10T09:40:07;19.60;;;17.55;;
11797;SDS011;5956;51.428;6.682;2023-05-10T09:42:34;21.00;;;18.75;;
11797;SDS011;5956;51.428;6.682;2023-05-10T09:45:01;21.85;;;19.65;;
11797;SDS011;5956;51.428;6.682;2023-05-10T09:47:28;23.23;;;19.70;;
11797;SDS011;5956;51.428;6.682;2023-05-10T09:49:55;22.67;;;20.37;;
11797;SDS011;5956;51.428;6.682;2023-05-10T09:52:29;23.90;;;20.47;;
11797;SDS011;5956;51.428;6.682;2023-05-10T09:54:56;22.10;;;19.73;;
11797;SDS011;5956;51.428;6.682;2023-05-10T09:57:23;22.37;;;19.97;;
11797;SDS011;5956;51.428;6.682;2023-05-10T09:59:50;21.77;;;19.47;;
11797;SDS011;5956;51.428;6.682;2023-05-10T10:02:18;22.60;;;19.53;;
11797;SDS011;5956;51.428;6.682;2023-05-10T10:04:45;21.20;;;17.77;;
11797;SDS011;5956;51.428;6.682;2023-05-10T10:07:15;23.83;;;19.23;;
11797;SDS011;5956;51.428;6.682;2023-05-10T10:09:49;21.33;;;17.47;;
11797;SDS011;5956;51.428;6.682;2023-05-10T10:12:17;21.67;;;18.60;;
11797;SDS011;5956;51.428;6.682;2023-05-10T10:14:44;22.00;;;17.67;;
11797;SDS011;5956;51.428;6.682;2023-05-10T10:17:11;21.43;;;17.93;;
11797;SDS011;5956;51.428;6.682;2023-05-10T10:19:38;22.77;;;19.00;;
11797;SDS011;5956;51.428;6.682;2023-05-10T10:22:05;20.40;;;18.30;;
11797;SDS011;5956;51.428;6.682;2023-05-10T10:24:31;22.58;;;20.10;;
11797;SDS011;5956;51.428;6.682;2023-05-10T10:27:01;19.92;;;17.95;;
11797;SDS011;5956;51.428;6.682;2023-05-10T10:29:32;24.90;;;19.48;;
11797;SDS011;5956;51.428;6.682;2023-05-10T10:32:02;22.70;;;18.83;;
11797;SDS011;5956;51.428;6.682;2023-05-10T10:34:32;23.03;;;20.07;;
11797;SDS011;5956;51.428;6.682;2023-05-10T10:37:03;22.67;;;20.15;;
11797;SDS011;5956;51.428;6.682;2023-05-10T10:39:30;25.23;;;22.48;;
11797;SDS011;5956;51.428;6.682;2023-05-10T10:41:57;22.63;;;20.17;;
11797;SDS011;5956;51.428;6.682;2023-05-10T10:44:34;24.53;;;21.53;;
11797;SDS011;5956;51.428;6.682;2023-05-10T10:47:02;21.40;;;18.63;;
11797;SDS011;5956;51.428;6.682;2023-05-10T10:49:31;23.35;;;20.55;;
11797;SDS011;5956;51.428;6.682;2023-05-10T10:54:51;24.73;;;22.17;;
11797;SDS011;5956;51.428;6.682;2023-05-10T10:57:18;27.47;;;22.10;;
11797;SDS011;5956;51.428;6.682;2023-05-10T10:59:48;23.23;;;20.93;;
11797;SDS011;5956;51.428;6.682;2023-05-10T11:02:32;21.35;;;19.25;;
11797;SDS011;5956;51.428;6.682;2023-05-10T11:04:58;21.98;;;19.85;;
11797;SDS011;5956;51.428;6.682;2023-05-10T11:07:25;21.07;;;18.97;;
11797;SDS011;5956;51.428;6.682;2023-05-10T11:09:52;18.98;;;17.02;;
11797;SDS011;5956;51.428;6.682;2023-05-10T11:12:18;18.52;;;16.30;;
11797;SDS011;5956;51.428;6.682;2023-05-10T11:14:50;17.38;;;15.57;;
11797;SDS011;5956;51.428;6.682;2023-05-10T11:17:24;16.80;;;15.13;;
11797;SDS011;5956;51.428;6.682;2023-05-10T11:20:06;17.95;;;16.23;;
11797;SDS011;5956;51.428;6.682;2023-05-10T11:22:34;17.80;;;15.95;;
11797;SDS011;5956;51.428;6.682;2023-05-10T11:25:15;16.50;;;14.90;;
11797;SDS011;5956;51.428;6.682;2023-05-10T11:27:41;17.40;;;15.70;;
11797;SDS011;5956;51.428;6.682;2023-05-10T11:32:38;16.05;;;14.60;;
11797;SDS011;5956;51.428;6.682;2023-05-10T11:35:08;14.33;;;12.93;;
11797;SDS011;5956;51.428;6.682;2023-05-10T11:37:35;13.20;;;12.00;;
11797;SDS011;5956;51.428;6.682;2023-05-10T11:40:02;12.52;;;11.23;;
11797;SDS011;5956;51.428;6.682;2023-05-10T11:42:29;10.23;;;9.25;;
11797;SDS011;5956;51.428;6.682;2023-05-10T11:44:56;11.32;;;10.38;;
11797;SDS011;5956;51.428;6.682;2023-05-10T11:47:22;10.73;;;9.80;;
11797;SDS011;5956;51.428;6.682;2023-05-10T11:49:50;11.07;;;10.02;;
11797;SDS011;5956;51.428;6.682;2023-05-10T11:52:18;10.67;;;9.70;;
11797;SDS011;5956;51.428;6.682;2023-05-10T11:54:45;11.38;;;9.77;;
11797;SDS011;5956;51.428;6.682;2023-05-10T11:57:12;10.48;;;8.93;;
11797;SDS011;5956;51.428;6.682;2023-05-10T11:59:38;10.60;;;9.60;;
11797;SDS011;5956;51.428;6.682;2023-05-10T12:02:05;9.52;;;8.73;;
11797;SDS011;5956;51.428;6.682;2023-05-10T12:04:32;9.27;;;8.32;;
11797;SDS011;5956;51.428;6.682;2023-05-10T12:07:00;10.25;;;7.90;;
11797;SDS011;5956;51.428;6.682;2023-05-10T12:09:26;9.38;;;8.57;;
11797;SDS011;5956;51.428;6.682;2023-05-10T12:11:55;10.20;;;9.30;;
11797;SDS011;5956;51.428;6.682;2023-05-10T12:14:21;10.32;;;9.43;;
11797;SDS011;5956;51.428;6.682;2023-05-10T12:16:49;10.20;;;9.07;;
11797;SDS011;5956;51.428;6.682;2023-05-10T12:19:17;11.90;;;9.90;;
11797;SDS011;5956;51.428;6.682;2023-05-10T12:21:44;10.35;;;9.45;;
11797;SDS011;5956;51.428;6.682;2023-05-10T12:24:12;10.45;;;9.50;;
11797;SDS011;5956;51.428;6.682;2023-05-10T12:26:41;11.05;;;9.95;;
11797;SDS011;5956;51.428;6.682;2023-05-10T12:29:11;10.43;;;9.43;;
11797;SDS011;5956;51.428;6.682;2023-05-10T12:31:48;9.90;;;8.75;;
11797;SDS011;5956;51.428;6.682;2023-05-10T12:34:22;9.27;;;8.43;;
11797;SDS011;5956;51.428;6.682;2023-05-10T12:36:49;8.48;;;7.78;;
11797;SDS011;5956;51.428;6.682;2023-05-10T12:39:17;10.27;;;9.27;;
11797;SDS011;5956;51.428;6.682;2023-05-10T12:41:44;10.45;;;9.43;;
11797;SDS011;5956;51.428;6.682;2023-05-10T12:44:11;8.98;;;8.18;;
11797;SDS011;5956;51.428;6.682;2023-05-10T12:46:37;9.73;;;8.93;;
11797;SDS011;5956;51.428;6.682;2023-05-10T12:49:04;8.20;;;7.47;;
11797;SDS011;5956;51.428;6.682;2023-05-10T12:51:30;10.18;;;7.82;;
11797;SDS011;5956;51.428;6.682;2023-05-10T12:53:56;8.95;;;8.05;;
11797;SDS011;5956;51.428;6.682;2023-05-10T12:56:24;7.75;;;7.05;;
11797;SDS011;5956;51.428;6.682;2023-05-10T12:58:51;9.40;;;8.13;;
11797;SDS011;5956;51.428;6.682;2023-05-10T13:01:18;9.57;;;8.60;;
11797;SDS011;5956;51.428;6.682;2023-05-10T13:03:44;8.95;;;7.97;;
11797;SDS011;5956;51.428;6.682;2023-05-10T13:06:11;8.80;;;7.93;;
11797;SDS011;5956;51.428;6.682;2023-05-10T13:08:38;8.10;;;7.35;;
11797;SDS011;5956;51.428;6.682;2023-05-10T13:11:05;7.15;;;6.45;;
11797;SDS011;5956;51.428;6.682;2023-05-10T13:13:33;7.63;;;7.03;;
11797;SDS011;5956;51.428;6.682;2023-05-10T13:16:00;7.55;;;6.95;;
11797;SDS011;5956;51.428;6.682;2023-05-10T13:18:28;8.00;;;7.30;;
11797;SDS011;5956;51.428;6.682;2023-05-10T13:20:55;8.55;;;7.68;;
11797;SDS011;5956;51.428;6.682;2023-05-10T13:23:22;7.78;;;7.22;;
11797;SDS011;5956;51.428;6.682;2023-05-10T13:25:49;9.48;;;8.65;;
11797;SDS011;5956;51.428;6.682;2023-05-10T13:28:15;9.63;;;8.75;;
11797;SDS011;5956;51.428;6.682;2023-05-10T13:30:44;9.43;;;8.70;;
11797;SDS011;5956;51.428;6.682;2023-05-10T13:33:11;9.68;;;8.77;;
11797;SDS011;5956;51.428;6.682;2023-05-10T13:35:37;10.48;;;9.45;;
11797;SDS011;5956;51.428;6.682;2023-05-10T13:38:04;10.57;;;9.52;;
11797;SDS011;5956;51.428;6.682;2023-05-10T13:40:32;10.40;;;9.45;;
11797;SDS011;5956;51.428;6.682;2023-05-10T13:42:59;9.93;;;9.15;;
11797;SDS011;5956;51.428;6.682;2023-05-10T13:45:26;10.40;;;9.60;;
11797;SDS011;5956;51.428;6.682;2023-05-10T13:47:54;10.40;;;9.50;;
11797;SDS011;5956;51.428;6.682;2023-05-10T13:50:21;11.27;;;10.32;;
11797;SDS011;5956;51.428;6.682;2023-05-10T13:52:47;12.32;;;9.63;;
11797;SDS011;5956;51.428;6.682;2023-05-10T13:55:14;9.80;;;8.98;;
11797;SDS011;5956;51.428;6.682;2023-05-10T13:57:41;9.98;;;9.07;;
11797;SDS011;5956;51.428;6.682;2023-05-10T14:00:08;9.93;;;9.02;;
11797;SDS011;5956;51.428;6.682;2023-05-10T14:02:35;11.43;;;10.48;;
11797;SDS011;5956;51.428;6.682;2023-05-10T14:05:03;12.05;;;10.82;;
11797;SDS011;5956;51.428;6.682;2023-05-10T14:07:31;13.40;;;12.32;;
11797;SDS011;5956;51.428;6.682;2023-05-10T14:09:57;13.27;;;12.07;;
11797;SDS011;5956;51.428;6.682;2023-05-10T14:12:24;13.45;;;12.25;;
11797;SDS011;5956;51.428;6.682;2023-05-10T14:14:51;13.43;;;12.25;;
11797;SDS011;5956;51.428;6.682;2023-05-10T14:17:18;13.10;;;11.82;;
11797;SDS011;5956;51.428;6.682;2023-05-10T14:19:45;13.73;;;12.48;;
11797;SDS011;5956;51.428;6.682;2023-05-10T14:22:13;12.55;;;11.35;;
11797;SDS011;5956;51.428;6.682;2023-05-10T14:24:40;14.63;;;13.32;;
11797;SDS011;5956;51.428;6.682;2023-05-10T14:27:08;15.07;;;13.77;;
11797;SDS011;5956;51.428;6.682;2023-05-10T14:29:35;14.45;;;13.13;;
11797;SDS011;5956;51.428;6.682;2023-05-10T14:32:02;14.20;;;12.93;;
11797;SDS011;5956;51.428;6.682;2023-05-10T14:34:29;17.00;;;15.43;;
11797;SDS011;5956;51.428;6.682;2023-05-10T14:36:56;15.65;;;14.25;;
11797;SDS011;5956;51.428;6.682;2023-05-10T14:39:25;14.38;;;13.07;;
11797;SDS011;5956;51.428;6.682;2023-05-10T14:41:54;14.75;;;13.25;;
11797;SDS011;5956;51.428;6.682;2023-05-10T14:44:21;13.55;;;12.35;;
11797;SDS011;5956;51.428;6.682;2023-05-10T14:46:48;11.45;;;10.38;;
11797;SDS011;5956;51.428;6.682;2023-05-10T14:49:15;14.90;;;13.60;;